sensor_id;sensor_type;location;lat;lon;timestamp;P1;durP1;ratioP1;P2;durP2;ratioP2
4420;SDS011;11824;51.178;13.546;2022-09-28T00:01:15;3.43;;;1.67;;
4420;SDS011;11824;51.178;13.546;2022-09-28T00:03:45;2.20;;;1.53;;
4420;SDS011;11824;51.178;13.546;2022-09-28T00:06:15;1.80;;;1.57;;
4420;SDS011;11824;51.178;13.546;2022-09-28T00:08:46;1.60;;;1.50;;
4420;SDS011;11824;51.178;13.546;2022-09-28T00:11:17;8.63;;;1.77;;
4420;SDS011;11824;51.178;13.546;2022-09-28T00:13:48;1.50;;;1.40;;
4420;SDS011;11824;51.178;13.546;2022-09-28T00:16:18;2.03;;;1.83;;
4420;SDS011;11824;51.178;13.546;2022-09-28T00:18:49;2.20;;;1.73;;
4420;SDS011;11824;51.178;13.546;2022-09-28T00:21:18;1.57;;;1.47;;
4420;SDS011;11824;51.178;13.546;2022-09-28T00:23:51;3.20;;;1.60;;
4420;SDS011;11824;51.178;13.546;2022-09-28T00:26:42;2.33;;;1.67;;
4420;SDS011;11824;51.178;13.546;2022-09-28T00:29:14;2.83;;;1.47;;
4420;SDS011;11824;51.178;13.546;2022-09-28T00:31:49;1.10;;;1.10;;
4420;SDS011;11824;51.178;13.546;2022-09-28T00:34:19;1.67;;;1.10;;
4420;SDS011;11824;51.178;13.546;2022-09-28T00:36:47;2.00;;;1.50;;
4420;SDS011;11824;51.178;13.546;2022-09-28T00:39:17;5.43;;;1.83;;
4420;SDS011;11824;51.178;13.546;2022-09-28T00:41:46;1.60;;;1.00;;
4420;SDS011;11824;51.178;13.546;2022-09-28T00:50:19;1.30;;;1.30;;
4420;SDS011;11824;51.178;13.546;2022-09-28T00:52:52;1.10;;;1.10;;
4420;SDS011;11824;51.178;13.546;2022-09-28T00:55:28;3.10;;;1.10;;
4420;SDS011;11824;51.178;13.546;2022-09-28T00:58:04;1.27;;;1.17;;
4420;SDS011;11824;51.178;13.546;2022-09-28T01:00:35;1.10;;;1.00;;
4420;SDS011;11824;51.178;13.546;2022-09-28T01:03:06;1.27;;;0.87;;
4420;SDS011;11824;51.178;13.546;2022-09-28T01:05:35;1.00;;;1.00;;
4420;SDS011;11824;51.178;13.546;2022-09-28T01:08:05;1.30;;;1.20;;
4420;SDS011;11824;51.178;13.546;2022-09-28T01:10:36;0.90;;;0.90;;
4420;SDS011;11824;51.178;13.546;2022-09-28T01:13:08;1.10;;;1.10;;
4420;SDS011;11824;51.178;13.546;2022-09-28T01:15:38;1.37;;;1.20;;
4420;SDS011;11824;51.178;13.546;2022-09-28T01:18:16;0.90;;;0.90;;
4420;SDS011;11824;51.178;13.546;2022-09-28T01:20:53;1.30;;;1.07;;
4420;SDS011;11824;51.178;13.546;2022-09-28T01:23:36;1.00;;;1.00;;
4420;SDS011;11824;51.178;13.546;2022-09-28T01:26:29;1.03;;;1.03;;
4420;SDS011;11824;51.178;13.546;2022-09-28T01:29:18;2.50;;;1.60;;
4420;SDS011;11824;51.178;13.546;2022-09-28T01:32:02;1.50;;;1.20;;
4420;SDS011;11824;51.178;13.546;2022-09-28T01:34:40;1.70;;;1.47;;
4420;SDS011;11824;51.178;13.546;2022-09-28T01:37:14;1.10;;;1.10;;
4420;SDS011;11824;51.178;13.546;2022-09-28T01:39:47;1.00;;;0.90;;
4420;SDS011;11824;51.178;13.546;2022-09-28T01:42:21;1.13;;;1.07;;
4420;SDS011;11824;51.178;13.546;2022-09-28T01:44:53;1.20;;;1.10;;
4420;SDS011;11824;51.178;13.546;2022-09-28T01:47:27;1.47;;;1.27;;
4420;SDS011;11824;51.178;13.546;2022-09-28T01:50:03;1.30;;;1.03;;
4420;SDS011;11824;51.178;13.546;2022-09-28T01:52:38;1.27;;;1.17;;
4420;SDS011;11824;51.178;13.546;2022-09-28T01:55:11;4.57;;;1.20;;
4420;SDS011;11824;51.178;13.546;2022-09-28T01:57:46;1.20;;;1.10;;
4420;SDS011;11824;51.178;13.546;2022-09-28T02:00:18;4.40;;;1.30;;
4420;SDS011;11824;51.178;13.546;2022-09-28T02:02:49;7.53;;;1.50;;
4420;SDS011;11824;51.178;13.546;2022-09-28T02:05:23;3.27;;;1.60;;
4420;SDS011;11824;51.178;13.546;2022-09-28T02:07:58;1.10;;;1.10;;
4420;SDS011;11824;51.178;13.546;2022-09-28T02:10:32;1.20;;;1.10;;
4420;SDS011;11824;51.178;13.546;2022-09-28T02:13:07;1.43;;;1.33;;
4420;SDS011;11824;51.178;13.546;2022-09-28T02:15:39;1.27;;;1.23;;
4420;SDS011;11824;51.178;13.546;2022-09-28T02:18:12;1.50;;;1.40;;
4420;SDS011;11824;51.178;13.546;2022-09-28T02:20:41;1.27;;;1.17;;
4420;SDS011;11824;51.178;13.546;2022-09-28T02:23:18;1.10;;;1.00;;
4420;SDS011;11824;51.178;13.546;2022-09-28T02:25:51;1.60;;;1.50;;
4420;SDS011;11824;51.178;13.546;2022-09-28T02:28:27;1.60;;;1.50;;
4420;SDS011;11824;51.178;13.546;2022-09-28T02:30:57;1.40;;;1.30;;
4420;SDS011;11824;51.178;13.546;2022-09-28T02:33:28;1.60;;;1.50;;
4420;SDS011;11824;51.178;13.546;2022-09-28T02:36:01;1.43;;;1.40;;
4420;SDS011;11824;51.178;13.546;2022-09-28T02:38:30;3.40;;;1.40;;
4420;SDS011;11824;51.178;13.546;2022-09-28T02:41:01;4.77;;;1.97;;
4420;SDS011;11824;51.178;13.546;2022-09-28T02:43:39;1.80;;;1.70;;
4420;SDS011;11824;51.178;13.546;2022-09-28T02:46:19;1.77;;;1.57;;
4420;SDS011;11824;51.178;13.546;2022-09-28T02:49:05;1.70;;;1.60;;
4420;SDS011;11824;51.178;13.546;2022-09-28T02:51:51;1.90;;;1.80;;
4420;SDS011;11824;51.178;13.546;2022-09-28T02:54:35;2.70;;;1.80;;
4420;SDS011;11824;51.178;13.546;2022-09-28T02:57:35;5.43;;;1.70;;
4420;SDS011;11824;51.178;13.546;2022-09-28T03:00:16;1.17;;;1.17;;
4420;SDS011;11824;51.178;13.546;2022-09-28T03:02:48;7.87;;;2.33;;
4420;SDS011;11824;51.178;13.546;2022-09-28T03:05:29;1.97;;;1.60;;
4420;SDS011;11824;51.178;13.546;2022-09-28T03:08:02;4.63;;;1.73;;
4420;SDS011;11824;51.178;13.546;2022-09-28T03:10:34;4.40;;;1.73;;
4420;SDS011;11824;51.178;13.546;2022-09-28T03:13:06;2.10;;;2.00;;
4420;SDS011;11824;51.178;13.546;2022-09-28T03:15:37;2.00;;;1.90;;
4420;SDS011;11824;51.178;13.546;2022-09-28T03:18:13;4.67;;;2.57;;
4420;SDS011;11824;51.178;13.546;2022-09-28T03:20:41;2.47;;;1.97;;
4420;SDS011;11824;51.178;13.546;2022-09-28T03:23:10;2.50;;;2.10;;
4420;SDS011;11824;51.178;13.546;2022-09-28T03:25:50;2.37;;;2.17;;
4420;SDS011;11824;51.178;13.546;2022-09-28T03:28:19;3.73;;;2.23;;
4420;SDS011;11824;51.178;13.546;2022-09-28T03:30:50;4.63;;;2.33;;
4420;SDS011;11824;51.178;13.546;2022-09-28T03:33:18;3.17;;;2.67;;
4420;SDS011;11824;51.178;13.546;2022-09-28T03:35:47;2.70;;;1.80;;
4420;SDS011;11824;51.178;13.546;2022-09-28T03:38:17;16.23;;;2.03;;
4420;SDS011;11824;51.178;13.546;2022-09-28T03:40:51;2.93;;;2.00;;
4420;SDS011;11824;51.178;13.546;2022-09-28T03:43:20;2.30;;;1.93;;
4420;SDS011;11824;51.178;13.546;2022-09-28T03:45:54;8.63;;;5.97;;
4420;SDS011;11824;51.178;13.546;2022-09-28T03:48:24;2.43;;;2.30;;
4420;SDS011;11824;51.178;13.546;2022-09-28T03:50:59;3.53;;;2.20;;
4420;SDS011;11824;51.178;13.546;2022-09-28T03:53:29;4.63;;;2.17;;
4420;SDS011;11824;51.178;13.546;2022-09-28T03:56:01;3.90;;;1.80;;
4420;SDS011;11824;51.178;13.546;2022-09-28T03:58:30;7.90;;;1.63;;
4420;SDS011;11824;51.178;13.546;2022-09-28T04:01:04;1.50;;;1.40;;
4420;SDS011;11824;51.178;13.546;2022-09-28T04:03:41;2.17;;;1.80;;
4420;SDS011;11824;51.178;13.546;2022-09-28T04:06:10;1.93;;;1.83;;
4420;SDS011;11824;51.178;13.546;2022-09-28T04:08:38;1.90;;;1.70;;
4420;SDS011;11824;51.178;13.546;2022-09-28T04:11:08;1.70;;;1.60;;
4420;SDS011;11824;51.178;13.546;2022-09-28T04:13:36;2.57;;;2.10;;
4420;SDS011;11824;51.178;13.546;2022-09-28T04:16:07;6.20;;;2.70;;
4420;SDS011;11824;51.178;13.546;2022-09-28T04:18:37;2.37;;;2.17;;
4420;SDS011;11824;51.178;13.546;2022-09-28T04:21:06;4.67;;;2.20;;
4420;SDS011;11824;51.178;13.546;2022-09-28T04:23:37;2.47;;;2.27;;
4420;SDS011;11824;51.178;13.546;2022-09-28T04:26:12;10.37;;;2.93;;
4420;SDS011;11824;51.178;13.546;2022-09-28T04:28:42;2.87;;;2.50;;
4420;SDS011;11824;51.178;13.546;2022-09-28T04:31:37;2.67;;;2.47;;
4420;SDS011;11824;51.178;13.546;2022-09-28T04:34:08;2.90;;;2.33;;
4420;SDS011;11824;51.178;13.546;2022-09-28T04:36:37;2.67;;;2.47;;
4420;SDS011;11824;51.178;13.546;2022-09-28T04:39:06;4.20;;;2.57;;
4420;SDS011;11824;51.178;13.546;2022-09-28T04:41:35;2.67;;;2.43;;
4420;SDS011;11824;51.178;13.546;2022-09-28T04:44:04;2.80;;;2.60;;
4420;SDS011;11824;51.178;13.546;2022-09-28T04:46:32;9.63;;;2.97;;
4420;SDS011;11824;51.178;13.546;2022-09-28T04:49:02;7.53;;;3.53;;
4420;SDS011;11824;51.178;13.546;2022-09-28T04:51:31;6.10;;;2.70;;
4420;SDS011;11824;51.178;13.546;2022-09-28T04:54:00;3.23;;;3.00;;
4420;SDS011;11824;51.178;13.546;2022-09-28T04:56:28;3.17;;;2.87;;
4420;SDS011;11824;51.178;13.546;2022-09-28T04:58:57;3.23;;;2.87;;
4420;SDS011;11824;51.178;13.546;2022-09-28T05:01:26;3.63;;;2.80;;
4420;SDS011;11824;51.178;13.546;2022-09-28T05:03:55;4.63;;;3.03;;
4420;SDS011;11824;51.178;13.546;2022-09-28T05:06:25;4.87;;;3.10;;
4420;SDS011;11824;51.178;13.546;2022-09-28T05:08:55;17.57;;;3.03;;
4420;SDS011;11824;51.178;13.546;2022-09-28T05:11:24;8.53;;;2.73;;
4420;SDS011;11824;51.178;13.546;2022-09-28T05:13:53;5.27;;;2.50;;
4420;SDS011;11824;51.178;13.546;2022-09-28T05:16:22;7.13;;;2.47;;
4420;SDS011;11824;51.178;13.546;2022-09-28T05:18:53;7.73;;;4.27;;
4420;SDS011;11824;51.178;13.546;2022-09-28T05:21:22;14.70;;;6.43;;
4420;SDS011;11824;51.178;13.546;2022-09-28T05:23:53;8.77;;;7.07;;
4420;SDS011;11824;51.178;13.546;2022-09-28T05:26:23;7.07;;;4.17;;
4420;SDS011;11824;51.178;13.546;2022-09-28T05:28:52;10.40;;;5.23;;
4420;SDS011;11824;51.178;13.546;2022-09-28T05:31:20;7.43;;;4.30;;
4420;SDS011;11824;51.178;13.546;2022-09-28T05:33:49;11.57;;;4.07;;
4420;SDS011;11824;51.178;13.546;2022-09-28T05:36:18;4.13;;;3.00;;
4420;SDS011;11824;51.178;13.546;2022-09-28T05:38:48;3.93;;;3.00;;
4420;SDS011;11824;51.178;13.546;2022-09-28T05:41:18;7.80;;;3.00;;
4420;SDS011;11824;51.178;13.546;2022-09-28T05:43:46;2.73;;;2.43;;
4420;SDS011;11824;51.178;13.546;2022-09-28T05:46:16;3.43;;;2.93;;
4420;SDS011;11824;51.178;13.546;2022-09-28T05:48:47;10.10;;;3.93;;
4420;SDS011;11824;51.178;13.546;2022-09-28T05:51:16;6.13;;;4.10;;
4420;SDS011;11824;51.178;13.546;2022-09-28T05:53:45;18.10;;;5.07;;
4420;SDS011;11824;51.178;13.546;2022-09-28T05:56:15;5.67;;;3.87;;
4420;SDS011;11824;51.178;13.546;2022-09-28T05:58:44;11.37;;;4.13;;
4420;SDS011;11824;51.178;13.546;2022-09-28T06:01:12;6.27;;;4.00;;
4420;SDS011;11824;51.178;13.546;2022-09-28T06:03:41;4.77;;;3.50;;
4420;SDS011;11824;51.178;13.546;2022-09-28T06:06:09;16.10;;;3.90;;
4420;SDS011;11824;51.178;13.546;2022-09-28T06:08:38;7.83;;;3.80;;
4420;SDS011;11824;51.178;13.546;2022-09-28T06:11:08;5.83;;;3.13;;
4420;SDS011;11824;51.178;13.546;2022-09-28T06:13:39;3.53;;;3.00;;
4420;SDS011;11824;51.178;13.546;2022-09-28T06:16:08;12.07;;;3.33;;
4420;SDS011;11824;51.178;13.546;2022-09-28T06:18:42;4.07;;;3.43;;
4420;SDS011;11824;51.178;13.546;2022-09-28T06:21:11;6.03;;;3.40;;
4420;SDS011;11824;51.178;13.546;2022-09-28T06:23:40;6.53;;;3.27;;
4420;SDS011;11824;51.178;13.546;2022-09-28T06:26:14;5.80;;;2.40;;
4420;SDS011;11824;51.178;13.546;2022-09-28T06:28:44;17.03;;;2.40;;
4420;SDS011;11824;51.178;13.546;2022-09-28T06:31:13;3.50;;;2.90;;
4420;SDS011;11824;51.178;13.546;2022-09-28T06:33:42;2.87;;;2.67;;
4420;SDS011;11824;51.178;13.546;2022-09-28T06:36:11;4.67;;;2.77;;
4420;SDS011;11824;51.178;13.546;2022-09-28T06:38:39;6.63;;;2.70;;
4420;SDS011;11824;51.178;13.546;2022-09-28T06:41:08;5.13;;;3.20;;
4420;SDS011;11824;51.178;13.546;2022-09-28T06:43:38;3.37;;;2.50;;
4420;SDS011;11824;51.178;13.546;2022-09-28T06:46:08;3.90;;;3.17;;
4420;SDS011;11824;51.178;13.546;2022-09-28T06:48:39;10.30;;;4.00;;
4420;SDS011;11824;51.178;13.546;2022-09-28T06:51:09;5.63;;;4.30;;
4420;SDS011;11824;51.178;13.546;2022-09-28T06:53:37;5.93;;;4.60;;
4420;SDS011;11824;51.178;13.546;2022-09-28T06:56:07;6.93;;;4.57;;
4420;SDS011;11824;51.178;13.546;2022-09-28T06:58:36;9.03;;;4.77;;
4420;SDS011;11824;51.178;13.546;2022-09-28T07:01:05;5.90;;;3.90;;
4420;SDS011;11824;51.178;13.546;2022-09-28T07:03:36;6.13;;;3.40;;
4420;SDS011;11824;51.178;13.546;2022-09-28T07:06:08;12.43;;;4.07;;
4420;SDS011;11824;51.178;13.546;2022-09-28T07:08:38;4.17;;;3.10;;
4420;SDS011;11824;51.178;13.546;2022-09-28T07:11:06;2.80;;;2.53;;
4420;SDS011;11824;51.178;13.546;2022-09-28T07:13:35;4.47;;;4.03;;
4420;SDS011;11824;51.178;13.546;2022-09-28T07:16:17;9.47;;;3.50;;
4420;SDS011;11824;51.178;13.546;2022-09-28T07:19:15;6.47;;;4.07;;
4420;SDS011;11824;51.178;13.546;2022-09-28T07:21:44;6.93;;;4.00;;
4420;SDS011;11824;51.178;13.546;2022-09-28T07:24:24;11.00;;;4.00;;
4420;SDS011;11824;51.178;13.546;2022-09-28T07:26:55;6.70;;;4.80;;
4420;SDS011;11824;51.178;13.546;2022-09-28T07:29:24;8.57;;;4.87;;
4420;SDS011;11824;51.178;13.546;2022-09-28T07:31:54;8.70;;;4.93;;
4420;SDS011;11824;51.178;13.546;2022-09-28T07:34:23;9.53;;;6.27;;
4420;SDS011;11824;51.178;13.546;2022-09-28T07:36:51;8.30;;;6.27;;
4420;SDS011;11824;51.178;13.546;2022-09-28T07:39:24;11.63;;;6.83;;
4420;SDS011;11824;51.178;13.546;2022-09-28T07:41:52;14.47;;;6.97;;
4420;SDS011;11824;51.178;13.546;2022-09-28T07:44:27;22.30;;;10.87;;
4420;SDS011;11824;51.178;13.546;2022-09-28T07:46:58;17.20;;;13.20;;
4420;SDS011;11824;51.178;13.546;2022-09-28T07:49:27;24.73;;;14.43;;
4420;SDS011;11824;51.178;13.546;2022-09-28T07:51:56;27.20;;;15.87;;
4420;SDS011;11824;51.178;13.546;2022-09-28T07:54:24;21.83;;;8.83;;
4420;SDS011;11824;51.178;13.546;2022-09-28T07:56:53;28.13;;;16.27;;
4420;SDS011;11824;51.178;13.546;2022-09-28T07:59:21;20.43;;;13.57;;
4420;SDS011;11824;51.178;13.546;2022-09-28T08:01:50;10.13;;;7.53;;
4420;SDS011;11824;51.178;13.546;2022-09-28T08:04:20;36.70;;;20.20;;
4420;SDS011;11824;51.178;13.546;2022-09-28T08:06:50;47.00;;;18.90;;
4420;SDS011;11824;51.178;13.546;2022-09-28T08:09:19;28.40;;;14.10;;
4420;SDS011;11824;51.178;13.546;2022-09-28T08:11:47;19.63;;;11.90;;
4420;SDS011;11824;51.178;13.546;2022-09-28T08:14:16;10.30;;;8.47;;
4420;SDS011;11824;51.178;13.546;2022-09-28T08:16:46;18.80;;;12.00;;
4420;SDS011;11824;51.178;13.546;2022-09-28T08:19:18;14.90;;;9.90;;
4420;SDS011;11824;51.178;13.546;2022-09-28T08:21:50;10.40;;;7.87;;
4420;SDS011;11824;51.178;13.546;2022-09-28T08:24:18;15.50;;;7.70;;
4420;SDS011;11824;51.178;13.546;2022-09-28T08:26:49;11.20;;;8.13;;
4420;SDS011;11824;51.178;13.546;2022-09-28T08:29:18;14.93;;;9.60;;
4420;SDS011;11824;51.178;13.546;2022-09-28T08:31:47;12.27;;;8.40;;
4420;SDS011;11824;51.178;13.546;2022-09-28T08:34:15;14.00;;;9.03;;
4420;SDS011;11824;51.178;13.546;2022-09-28T08:36:49;16.10;;;9.30;;
4420;SDS011;11824;51.178;13.546;2022-09-28T08:39:17;13.10;;;9.10;;
4420;SDS011;11824;51.178;13.546;2022-09-28T08:41:47;20.47;;;10.83;;
4420;SDS011;11824;51.178;13.546;2022-09-28T08:44:20;16.73;;;10.70;;
4420;SDS011;11824;51.178;13.546;2022-09-28T08:46:51;16.40;;;10.70;;
4420;SDS011;11824;51.178;13.546;2022-09-28T08:49:23;15.60;;;10.77;;
4420;SDS011;11824;51.178;13.546;2022-09-28T08:51:58;17.30;;;10.50;;
4420;SDS011;11824;51.178;13.546;2022-09-28T08:54:33;16.80;;;11.07;;
4420;SDS011;11824;51.178;13.546;2022-09-28T08:57:09;23.30;;;10.97;;
4420;SDS011;11824;51.178;13.546;2022-09-28T08:59:42;14.97;;;10.73;;
4420;SDS011;11824;51.178;13.546;2022-09-28T09:02:18;15.67;;;10.67;;
4420;SDS011;11824;51.178;13.546;2022-09-28T09:04:50;15.27;;;10.43;;
4420;SDS011;11824;51.178;13.546;2022-09-28T09:07:28;22.80;;;10.93;;
4420;SDS011;11824;51.178;13.546;2022-09-28T09:10:07;8.13;;;4.47;;
4420;SDS011;11824;51.178;13.546;2022-09-28T09:12:46;5.13;;;4.63;;
4420;SDS011;11824;51.178;13.546;2022-09-28T09:15:26;6.70;;;4.30;;
4420;SDS011;11824;51.178;13.546;2022-09-28T09:18:07;5.77;;;3.80;;
4420;SDS011;11824;51.178;13.546;2022-09-28T09:20:49;5.63;;;4.50;;
4420;SDS011;11824;51.178;13.546;2022-09-28T09:23:26;7.17;;;5.20;;
4420;SDS011;11824;51.178;13.546;2022-09-28T09:26:03;4.30;;;3.90;;
4420;SDS011;11824;51.178;13.546;2022-09-28T09:28:49;3.93;;;2.50;;
4420;SDS011;11824;51.178;13.546;2022-09-28T09:31:35;7.20;;;4.43;;
4420;SDS011;11824;51.178;13.546;2022-09-28T09:34:28;8.07;;;4.90;;
4420;SDS011;11824;51.178;13.546;2022-09-28T09:37:23;2.00;;;1.60;;
4420;SDS011;11824;51.178;13.546;2022-09-28T09:40:13;5.60;;;1.20;;
4420;SDS011;11824;51.178;13.546;2022-09-28T09:42:54;1.30;;;1.20;;
4420;SDS011;11824;51.178;13.546;2022-09-28T09:45:38;1.10;;;0.93;;
4420;SDS011;11824;51.178;13.546;2022-09-28T09:48:20;1.33;;;1.10;;
4420;SDS011;11824;51.178;13.546;2022-09-28T09:50:56;5.30;;;1.20;;
4420;SDS011;11824;51.178;13.546;2022-09-28T09:53:28;2.73;;;1.80;;
4420;SDS011;11824;51.178;13.546;2022-09-28T09:56:06;2.60;;;1.43;;
4420;SDS011;11824;51.178;13.546;2022-09-28T09:58:39;4.70;;;1.40;;
4420;SDS011;11824;51.178;13.546;2022-09-28T10:01:14;1.53;;;1.33;;
4420;SDS011;11824;51.178;13.546;2022-09-28T10:03:46;2.63;;;1.57;;
4420;SDS011;11824;51.178;13.546;2022-09-28T10:06:16;1.73;;;1.63;;
4420;SDS011;11824;51.178;13.546;2022-09-28T10:08:51;5.73;;;2.10;;
4420;SDS011;11824;51.178;13.546;2022-09-28T10:11:30;3.47;;;2.30;;
4420;SDS011;11824;51.178;13.546;2022-09-28T10:14:02;3.40;;;2.00;;
4420;SDS011;11824;51.178;13.546;2022-09-28T10:16:33;3.47;;;1.83;;
4420;SDS011;11824;51.178;13.546;2022-09-28T10:19:03;2.37;;;2.17;;
4420;SDS011;11824;51.178;13.546;2022-09-28T10:21:31;7.80;;;2.53;;
4420;SDS011;11824;51.178;13.546;2022-09-28T10:24:02;4.60;;;3.30;;
4420;SDS011;11824;51.178;13.546;2022-09-28T10:26:36;3.07;;;2.87;;
4420;SDS011;11824;51.178;13.546;2022-09-28T10:29:10;4.13;;;2.70;;
4420;SDS011;11824;51.178;13.546;2022-09-28T10:31:43;1.93;;;1.83;;
4420;SDS011;11824;51.178;13.546;2022-09-28T10:34:14;3.90;;;2.17;;
4420;SDS011;11824;51.178;13.546;2022-09-28T10:36:45;2.10;;;1.90;;
4420;SDS011;11824;51.178;13.546;2022-09-28T10:39:24;4.97;;;1.83;;
4420;SDS011;11824;51.178;13.546;2022-09-28T10:41:59;2.90;;;2.60;;
4420;SDS011;11824;51.178;13.546;2022-09-28T10:44:30;3.80;;;3.00;;
4420;SDS011;11824;51.178;13.546;2022-09-28T10:47:02;28.97;;;14.90;;
4420;SDS011;11824;51.178;13.546;2022-09-28T10:49:36;19.47;;;12.73;;
4420;SDS011;11824;51.178;13.546;2022-09-28T10:52:32;13.00;;;6.43;;
4420;SDS011;11824;51.178;13.546;2022-09-28T10:55:17;19.50;;;10.53;;
4420;SDS011;11824;51.178;13.546;2022-09-28T10:57:59;8.47;;;4.00;;
4420;SDS011;11824;51.178;13.546;2022-09-28T11:00:43;1.70;;;1.60;;
4420;SDS011;11824;51.178;13.546;2022-09-28T11:03:16;2.20;;;1.40;;
4420;SDS011;11824;51.178;13.546;2022-09-28T11:05:53;2.00;;;1.83;;
4420;SDS011;11824;51.178;13.546;2022-09-28T11:08:24;1.67;;;1.57;;
4420;SDS011;11824;51.178;13.546;2022-09-28T11:13:47;1.00;;;1.00;;
4420;SDS011;11824;51.178;13.546;2022-09-28T11:16:19;2.87;;;1.30;;
4420;SDS011;11824;51.178;13.546;2022-09-28T11:18:54;2.00;;;1.03;;
4420;SDS011;11824;51.178;13.546;2022-09-28T11:21:24;2.10;;;1.10;;
4420;SDS011;11824;51.178;13.546;2022-09-28T11:23:55;1.10;;;1.10;;
4420;SDS011;11824;51.178;13.546;2022-09-28T11:26:37;1.47;;;1.37;;
4420;SDS011;11824;51.178;13.546;2022-09-28T11:29:20;1.83;;;1.50;;
4420;SDS011;11824;51.178;13.546;2022-09-28T11:31:51;1.23;;;1.20;;
4420;SDS011;11824;51.178;13.546;2022-09-28T11:34:27;1.30;;;1.30;;
4420;SDS011;11824;51.178;13.546;2022-09-28T11:40:17;1.13;;;1.07;;
4420;SDS011;11824;51.178;13.546;2022-09-28T11:42:59;2.03;;;1.30;;
4420;SDS011;11824;51.178;13.546;2022-09-28T11:45:42;1.23;;;1.23;;
4420;SDS011;11824;51.178;13.546;2022-09-28T11:48:21;1.33;;;1.07;;
4420;SDS011;11824;51.178;13.546;2022-09-28T11:50:55;1.73;;;1.00;;
4420;SDS011;11824;51.178;13.546;2022-09-28T11:53:30;1.40;;;1.30;;
4420;SDS011;11824;51.178;13.546;2022-09-28T11:56:04;3.20;;;2.50;;
4420;SDS011;11824;51.178;13.546;2022-09-28T11:58:41;1.30;;;1.20;;
4420;SDS011;11824;51.178;13.546;2022-09-28T12:01:17;1.43;;;1.20;;
4420;SDS011;11824;51.178;13.546;2022-09-28T12:03:51;2.07;;;1.83;;
4420;SDS011;11824;51.178;13.546;2022-09-28T12:06:24;2.60;;;1.60;;
4420;SDS011;11824;51.178;13.546;2022-09-28T12:08:59;2.20;;;1.20;;
4420;SDS011;11824;51.178;13.546;2022-09-28T12:11:35;1.57;;;1.47;;
4420;SDS011;11824;51.178;13.546;2022-09-28T12:14:09;3.97;;;3.30;;
4420;SDS011;11824;51.178;13.546;2022-09-28T12:16:48;3.30;;;3.00;;
4420;SDS011;11824;51.178;13.546;2022-09-28T12:19:33;1.73;;;1.60;;
4420;SDS011;11824;51.178;13.546;2022-09-28T12:22:09;3.93;;;1.40;;
4420;SDS011;11824;51.178;13.546;2022-09-28T12:24:44;3.83;;;2.27;;
4420;SDS011;11824;51.178;13.546;2022-09-28T12:27:16;1.77;;;1.67;;
4420;SDS011;11824;51.178;13.546;2022-09-28T12:29:52;8.73;;;5.23;;
4420;SDS011;11824;51.178;13.546;2022-09-28T12:32:30;3.63;;;2.90;;
4420;SDS011;11824;51.178;13.546;2022-09-28T12:35:09;35.50;;;14.40;;
4420;SDS011;11824;51.178;13.546;2022-09-28T12:37:48;4.77;;;3.20;;
4420;SDS011;11824;51.178;13.546;2022-09-28T12:40:31;1.60;;;1.50;;
4420;SDS011;11824;51.178;13.546;2022-09-28T12:46:20;1.90;;;1.77;;
4420;SDS011;11824;51.178;13.546;2022-09-28T12:52:26;1.80;;;1.70;;
4420;SDS011;11824;51.178;13.546;2022-09-28T12:57:55;1.43;;;1.43;;
4420;SDS011;11824;51.178;13.546;2022-09-28T13:00:30;2.07;;;1.97;;
4420;SDS011;11824;51.178;13.546;2022-09-28T13:09:11;3.50;;;3.30;;
4420;SDS011;11824;51.178;13.546;2022-09-28T13:11:52;2.30;;;2.20;;
4420;SDS011;11824;51.178;13.546;2022-09-28T13:14:49;2.73;;;2.53;;
4420;SDS011;11824;51.178;13.546;2022-09-28T13:17:33;2.03;;;1.93;;
4420;SDS011;11824;51.178;13.546;2022-09-28T13:20:15;2.47;;;1.90;;
4420;SDS011;11824;51.178;13.546;2022-09-28T13:22:59;3.03;;;2.83;;
4420;SDS011;11824;51.178;13.546;2022-09-28T13:25:38;1.93;;;1.83;;
4420;SDS011;11824;51.178;13.546;2022-09-28T13:28:10;1.20;;;1.20;;
4420;SDS011;11824;51.178;13.546;2022-09-28T13:30:41;1.63;;;1.53;;
4420;SDS011;11824;51.178;13.546;2022-09-28T13:33:14;1.30;;;1.30;;
4420;SDS011;11824;51.178;13.546;2022-09-28T13:35:46;1.40;;;1.20;;
4420;SDS011;11824;51.178;13.546;2022-09-28T13:38:30;1.30;;;1.20;;
4420;SDS011;11824;51.178;13.546;2022-09-28T13:41:24;2.13;;;1.30;;
4420;SDS011;11824;51.178;13.546;2022-09-28T13:46:49;0.87;;;0.87;;
4420;SDS011;11824;51.178;13.546;2022-09-28T13:49:35;0.90;;;0.90;;
4420;SDS011;11824;51.178;13.546;2022-09-28T13:52:11;4.13;;;1.07;;
4420;SDS011;11824;51.178;13.546;2022-09-28T13:54:53;1.60;;;1.00;;
4420;SDS011;11824;51.178;13.546;2022-09-28T13:57:35;1.20;;;1.20;;
4420;SDS011;11824;51.178;13.546;2022-09-28T14:00:14;3.53;;;1.40;;
4420;SDS011;11824;51.178;13.546;2022-09-28T14:02:47;1.20;;;1.20;;
4420;SDS011;11824;51.178;13.546;2022-09-28T14:08:32;1.00;;;1.00;;
4420;SDS011;11824;51.178;13.546;2022-09-28T14:20:22;1.40;;;1.30;;
4420;SDS011;11824;51.178;13.546;2022-09-28T14:26:03;0.93;;;0.93;;
4420;SDS011;11824;51.178;13.546;2022-09-28T14:28:59;1.10;;;1.07;;
4420;SDS011;11824;51.178;13.546;2022-09-28T14:31:37;1.10;;;1.10;;
4420;SDS011;11824;51.178;13.546;2022-09-28T14:34:21;1.33;;;1.23;;
4420;SDS011;11824;51.178;13.546;2022-09-28T14:36:52;1.40;;;1.30;;
4420;SDS011;11824;51.178;13.546;2022-09-28T14:39:40;1.40;;;1.30;;
4420;SDS011;11824;51.178;13.546;2022-09-28T14:42:52;2.50;;;1.10;;
4420;SDS011;11824;51.178;13.546;2022-09-28T14:45:51;1.57;;;1.23;;
4420;SDS011;11824;51.178;13.546;2022-09-28T14:48:55;1.07;;;1.03;;
4420;SDS011;11824;51.178;13.546;2022-09-28T14:51:42;2.47;;;1.50;;
4420;SDS011;11824;51.178;13.546;2022-09-28T14:54:27;1.77;;;1.67;;
4420;SDS011;11824;51.178;13.546;2022-09-28T14:57:15;3.10;;;1.47;;
4420;SDS011;11824;51.178;13.546;2022-09-28T14:59:45;2.20;;;1.50;;
4420;SDS011;11824;51.178;13.546;2022-09-28T15:02:23;1.20;;;1.20;;
4420;SDS011;11824;51.178;13.546;2022-09-28T15:05:00;1.30;;;1.20;;
4420;SDS011;11824;51.178;13.546;2022-09-28T15:07:44;1.40;;;1.30;;
4420;SDS011;11824;51.178;13.546;2022-09-28T15:10:20;1.40;;;1.30;;
4420;SDS011;11824;51.178;13.546;2022-09-28T15:13:00;1.40;;;1.30;;
4420;SDS011;11824;51.178;13.546;2022-09-28T15:15:32;1.40;;;1.37;;
4420;SDS011;11824;51.178;13.546;2022-09-28T15:18:07;1.50;;;1.40;;
4420;SDS011;11824;51.178;13.546;2022-09-28T15:20:55;1.20;;;1.20;;
4420;SDS011;11824;51.178;13.546;2022-09-28T15:23:32;1.73;;;1.20;;
4420;SDS011;11824;51.178;13.546;2022-09-28T15:26:02;1.20;;;1.20;;
4420;SDS011;11824;51.178;13.546;2022-09-28T15:28:33;1.23;;;1.23;;
4420;SDS011;11824;51.178;13.546;2022-09-28T15:31:04;1.40;;;1.30;;
4420;SDS011;11824;51.178;13.546;2022-09-28T15:33:33;1.80;;;1.60;;
4420;SDS011;11824;51.178;13.546;2022-09-28T15:36:21;1.30;;;1.23;;
4420;SDS011;11824;51.178;13.546;2022-09-28T15:38:54;1.80;;;1.70;;
4420;SDS011;11824;51.178;13.546;2022-09-28T15:41:25;1.00;;;1.00;;
4420;SDS011;11824;51.178;13.546;2022-09-28T15:44:06;2.00;;;1.90;;
4420;SDS011;11824;51.178;13.546;2022-09-28T15:46:48;3.03;;;2.60;;
4420;SDS011;11824;51.178;13.546;2022-09-28T15:49:22;2.40;;;2.20;;
4420;SDS011;11824;51.178;13.546;2022-09-28T15:51:55;1.77;;;1.67;;
4420;SDS011;11824;51.178;13.546;2022-09-28T15:54:28;5.77;;;4.80;;
4420;SDS011;11824;51.178;13.546;2022-09-28T15:57:04;2.20;;;2.10;;
4420;SDS011;11824;51.178;13.546;2022-09-28T15:59:33;8.23;;;3.60;;
4420;SDS011;11824;51.178;13.546;2022-09-28T16:02:10;7.87;;;5.60;;
4420;SDS011;11824;51.178;13.546;2022-09-28T16:04:45;5.53;;;4.90;;
4420;SDS011;11824;51.178;13.546;2022-09-28T16:10:26;3.37;;;3.07;;
4420;SDS011;11824;51.178;13.546;2022-09-28T16:13:06;2.67;;;2.33;;
4420;SDS011;11824;51.178;13.546;2022-09-28T16:15:43;6.33;;;3.47;;
4420;SDS011;11824;51.178;13.546;2022-09-28T16:18:15;5.43;;;2.80;;